createdAt,value
2019-03-15T00:00:48.214Z,83.85
2019-03-15T00:01:48.153Z,83.13
2019-03-15T00:02:48.143Z,83.33
2019-03-15T00:03:48.130Z,83.13
2019-03-15T00:04:48.134Z,83.13
2019-03-15T00:05:48.109Z,82.92
2019-03-15T00:06:48.128Z,83.33
2019-03-15T00:07:48.087Z,83.03
2019-03-15T00:08:48.076Z,83.03
2019-03-15T00:09:48.506Z,82.71
2019-03-15T00:10:48.060Z,82.16
2019-03-15T00:11:48.055Z,81.44
2019-03-15T00:12:48.099Z,81.61
2019-03-15T00:13:48.026Z,81.61
2019-03-15T00:14:48.021Z,81.44
2019-03-15T00:15:48.009Z,81.71
2019-03-15T00:16:47.997Z,81.61
2019-03-15T00:17:47.979Z,80.99
2019-03-15T00:18:48.170Z,81.61
2019-03-15T00:19:47.967Z,81.81
2019-03-15T00:20:47.948Z,81.61
2019-03-15T00:21:47.969Z,81.61
2019-03-15T00:22:47.929Z,81.51
2019-03-15T00:23:47.921Z,81.61
2019-03-15T00:24:47.932Z,81.40
2019-03-15T00:25:47.908Z,81.61
2019-03-15T00:26:47.886Z,81.40
2019-03-15T00:27:47.871Z,81.61
2019-03-15T00:28:47.859Z,81.51
2019-03-15T00:29:47.855Z,81.71
2019-03-15T00:30:48.202Z,82.02
2019-03-15T00:31:47.838Z,82.54
2019-03-15T00:32:47.828Z,81.92
2019-03-15T00:33:47.817Z,82.54
2019-03-15T00:34:47.805Z,82.02
2019-03-15T00:35:47.792Z,81.61
2019-03-15T00:36:47.820Z,81.61
2019-03-15T00:37:47.775Z,81.81
2019-03-15T00:38:47.759Z,81.71
2019-03-15T00:39:47.757Z,81.92
2019-03-15T00:40:47.733Z,81.57
2019-03-15T00:41:47.717Z,81.81
2019-03-15T00:42:47.778Z,81.61
2019-03-15T00:43:49.383Z,81.71
2019-03-15T00:44:47.687Z,81.77
2019-03-15T00:45:47.673Z,81.61
2019-03-15T00:46:47.665Z,81.92
2019-03-15T00:47:47.662Z,81.92
2019-03-15T00:48:47.729Z,81.92
2019-03-15T00:49:47.632Z,81.61
2019-03-15T00:50:47.619Z,81.81
2019-03-15T00:51:47.613Z,82.64
2019-03-15T00:52:47.599Z,82.95
2019-03-15T00:53:47.589Z,83.05
2019-03-15T00:54:47.618Z,81.61
2019-03-15T00:55:47.574Z,81.47
2019-03-15T00:56:47.557Z,81.37
2019-03-15T00:57:47.545Z,81.61
2019-03-15T00:58:47.533Z,82.09
2019-03-15T00:59:47.523Z,82.54
2019-03-15T01:00:47.783Z,81.92
2019-03-15T01:01:47.515Z,81.81
2019-03-15T01:02:47.492Z,82.54
2019-03-15T01:03:47.484Z,82.95
2019-03-15T01:04:47.523Z,82.33
2019-03-15T01:05:47.458Z,81.92
2019-03-15T01:06:47.481Z,81.92
2019-03-15T01:07:47.444Z,81.61
2019-03-15T01:08:47.425Z,81.81
2019-03-15T01:09:47.436Z,81.71
2019-03-15T01:10:47.402Z,81.71
2019-03-15T01:11:47.401Z,81.61
2019-03-15T01:12:47.415Z,81.71
2019-03-15T01:13:47.375Z,81.40
2019-03-15T01:14:47.361Z,81.61
2019-03-15T01:15:47.348Z,81.75
2019-03-15T01:16:47.351Z,81.75
2019-03-15T01:17:47.330Z,81.54
2019-03-15T01:18:47.365Z,81.75
2019-03-15T01:19:47.318Z,81.03
2019-03-15T01:20:47.306Z,80.58
2019-03-15T01:21:47.288Z,80.47
2019-03-15T01:22:47.275Z,81.09
2019-03-15T01:23:47.264Z,81.71
2019-03-15T01:24:47.300Z,81.40
2019-03-15T01:25:47.251Z,81.51
2019-03-15T01:26:47.230Z,81.75
2019-03-15T01:27:47.218Z,81.34
2019-03-15T01:28:47.217Z,81.85
2019-03-15T01:29:47.199Z,81.54
2019-03-15T01:30:47.217Z,81.54
2019-03-15T01:31:47.185Z,81.48
2019-03-15T01:32:47.164Z,81.48
2019-03-15T01:33:47.201Z,81.65
2019-03-15T01:34:47.146Z,81.65
2019-03-15T01:35:47.146Z,81.65
2019-03-15T01:36:47.285Z,81.17
2019-03-15T01:37:47.122Z,81.58
2019-03-15T01:38:47.119Z,81.65
2019-03-15T01:39:47.099Z,81.68
2019-03-15T01:40:48.890Z,81.89
2019-03-15T01:41:47.070Z,81.48
2019-03-15T01:42:47.902Z,81.68
2019-03-15T01:43:47.056Z,81.48
2019-03-15T01:44:47.035Z,81.79
2019-03-15T01:45:47.035Z,81.89
2019-03-15T01:46:47.016Z,81.68
2019-03-15T01:47:47.004Z,81.68
2019-03-15T01:48:47.037Z,81.79
2019-03-15T01:49:46.984Z,81.79
2019-03-15T01:50:46.984Z,81.27
2019-03-15T01:51:46.961Z,81.89
2019-03-15T01:52:46.956Z,81.48
2019-03-15T01:53:46.940Z,81.48
2019-03-15T01:54:46.979Z,81.68
2019-03-15T01:55:47.002Z,81.79
2019-03-15T01:56:46.911Z,81.79
2019-03-15T01:57:46.898Z,80.96
2019-03-15T01:58:46.887Z,81.48
2019-03-15T01:59:46.885Z,81.79
2019-03-15T02:00:46.907Z,81.79
2019-03-15T02:01:46.857Z,81.68
2019-03-15T02:02:46.863Z,81.58
2019-03-15T02:03:46.831Z,81.62
2019-03-15T02:04:46.819Z,81.07
2019-03-15T02:05:46.814Z,81.58
2019-03-15T02:06:46.856Z,81.58
2019-03-15T02:07:46.790Z,81.27
2019-03-15T02:08:46.789Z,81.68
2019-03-15T02:09:46.786Z,81.48
2019-03-15T02:10:46.775Z,81.48
2019-03-15T02:11:46.749Z,81.93
2019-03-15T02:12:47.455Z,81.72
2019-03-15T02:13:46.721Z,81.72
2019-03-15T02:14:46.712Z,81.82
2019-03-15T02:15:46.713Z,81.72
2019-03-15T02:16:46.690Z,82.03
2019-03-15T02:17:46.687Z,81.82
2019-03-15T02:18:46.703Z,81.51
2019-03-15T02:19:46.656Z,81.72
2019-03-15T02:20:46.644Z,82.24
2019-03-15T02:21:46.644Z,81.82
2019-03-15T02:22:46.633Z,81.72
2019-03-15T02:23:46.626Z,81.51
2019-03-15T02:24:46.654Z,81.82
2019-03-15T02:25:46.591Z,82.24
2019-03-15T02:26:46.583Z,82.24
2019-03-15T02:27:46.572Z,82.86
2019-03-15T02:28:46.559Z,83.20
2019-03-15T02:29:46.619Z,82.59
2019-03-15T02:30:46.601Z,81.86
2019-03-15T02:31:47.086Z,82.34
2019-03-15T02:32:46.517Z,82.07
2019-03-15T02:33:46.517Z,82.03
2019-03-15T02:34:46.495Z,82.07
2019-03-15T02:35:47.239Z,83.00
2019-03-15T02:36:46.528Z,82.28
2019-03-15T02:37:46.464Z,83.20
2019-03-15T02:38:46.455Z,82.79
2019-03-15T02:39:46.529Z,83.10
2019-03-15T02:40:46.432Z,83.41
2019-03-15T02:41:46.459Z,83.00
2019-03-15T02:42:46.440Z,82.69
2019-03-15T02:43:46.400Z,82.07
2019-03-15T02:44:46.387Z,83.10
2019-03-15T02:45:46.381Z,82.17
2019-03-15T02:46:46.367Z,81.72
2019-03-15T02:47:46.819Z,81.10
2019-03-15T02:48:46.398Z,81.21
2019-03-15T02:49:46.336Z,81.72
2019-03-15T02:50:46.324Z,81.68
2019-03-15T02:51:46.322Z,81.72
2019-03-15T02:52:46.301Z,82.03
2019-03-15T02:53:46.309Z,83.06
2019-03-15T02:54:46.329Z,83.17
2019-03-15T02:55:46.577Z,82.55
2019-03-15T02:56:46.285Z,83.37
2019-03-15T02:57:46.248Z,83.06
2019-03-15T02:58:46.277Z,82.75
2019-03-15T02:59:47.221Z,82.65
2019-03-15T03:00:46.268Z,83.27
2019-03-15T03:01:46.215Z,83.48
2019-03-15T03:02:46.205Z,83.27
2019-03-15T03:03:47.183Z,83.37
2019-03-15T03:04:46.170Z,83.27
2019-03-15T03:05:46.161Z,83.78
2019-03-15T03:06:46.184Z,83.99
2019-03-15T03:07:46.139Z,83.89
2019-03-15T03:08:46.143Z,83.58
2019-03-15T03:09:46.119Z,84.09
2019-03-15T03:10:46.113Z,83.99
2019-03-15T03:11:46.099Z,84.09
2019-03-15T03:12:46.124Z,84.30
2019-03-15T03:13:46.077Z,84.75
2019-03-15T03:14:46.083Z,84.55
2019-03-15T03:15:46.063Z,84.51
2019-03-15T03:16:46.417Z,84.41
2019-03-15T03:17:46.036Z,84.92
2019-03-15T03:18:46.073Z,84.41
2019-03-15T03:19:46.011Z,84.86
2019-03-15T03:20:46.091Z,84.86
2019-03-15T03:21:45.992Z,84.96
2019-03-15T03:22:45.979Z,84.75
2019-03-15T03:23:45.968Z,84.81
2019-03-15T03:24:46.516Z,84.92
2019-03-15T03:25:45.943Z,84.75
2019-03-15T03:26:45.948Z,84.65
2019-03-15T03:27:45.926Z,85.02
2019-03-15T03:28:45.917Z,84.81
2019-03-15T03:29:46.891Z,84.92
2019-03-15T03:30:46.891Z,84.61
2019-03-15T03:31:46.242Z,84.81
2019-03-15T03:32:45.881Z,85.02
2019-03-15T03:33:46.009Z,84.72
2019-03-15T03:34:45.870Z,84.51
2019-03-15T03:35:45.853Z,85.33
2019-03-15T03:36:45.882Z,85.33
2019-03-15T03:37:45.823Z,85.02
2019-03-15T03:38:45.804Z,85.13
2019-03-15T03:39:45.804Z,85.02
2019-03-15T03:40:45.790Z,84.72
2019-03-15T03:41:45.773Z,85.02
2019-03-15T03:42:45.820Z,85.75
2019-03-15T03:43:45.757Z,85.23
2019-03-15T03:44:45.739Z,85.54
2019-03-15T03:45:45.730Z,85.02
2019-03-15T03:46:45.717Z,85.44
2019-03-15T03:47:45.724Z,85.23
2019-03-15T03:48:45.756Z,85.23
2019-03-15T03:49:45.686Z,85.33
2019-03-15T03:50:45.676Z,85.54
2019-03-15T03:51:45.665Z,85.44
2019-03-15T03:52:45.656Z,85.23
2019-03-15T03:53:45.642Z,85.23
2019-03-15T03:54:45.677Z,85.13
2019-03-15T03:55:45.638Z,85.13
2019-03-15T03:56:45.607Z,85.23
2019-03-15T03:57:45.605Z,85.44
2019-03-15T03:58:45.585Z,84.81
2019-03-15T03:59:45.578Z,85.23
2019-03-15T04:00:45.615Z,85.33
2019-03-15T04:01:45.572Z,85.85
2019-03-15T04:02:45.543Z,85.54
2019-03-15T04:03:45.535Z,85.30
2019-03-15T04:04:45.529Z,85.75
2019-03-15T04:05:45.512Z,85.44
2019-03-15T04:06:45.686Z,85.44
2019-03-15T04:07:45.502Z,85.54
2019-03-15T04:08:45.477Z,85.44
2019-03-15T04:09:45.466Z,85.39
2019-03-15T04:10:45.488Z,85.85
2019-03-15T04:11:55.228Z,85.64
2019-03-15T04:12:46.480Z,85.75
2019-03-15T04:13:45.431Z,85.64
2019-03-15T04:14:45.419Z,85.44
2019-03-15T04:15:45.410Z,85.85
2019-03-15T04:16:45.402Z,85.85
2019-03-15T04:17:45.388Z,85.95
2019-03-15T04:18:45.418Z,85.81
2019-03-15T04:19:45.358Z,85.44
2019-03-15T04:20:45.357Z,85.54
2019-03-15T04:21:45.364Z,85.81
2019-03-15T04:22:45.330Z,85.50
2019-03-15T04:23:45.326Z,85.95
2019-03-15T04:24:45.362Z,86.05
2019-03-15T04:25:45.299Z,86.05
2019-03-15T04:26:45.290Z,86.36
2019-03-15T04:27:45.285Z,86.57
2019-03-15T04:28:45.273Z,86.02
2019-03-15T04:29:45.257Z,86.12
2019-03-15T04:30:45.308Z,86.36
2019-03-15T04:31:45.240Z,86.26
2019-03-15T04:32:45.234Z,86.47
2019-03-15T04:33:45.208Z,86.43
2019-03-15T04:34:45.198Z,86.63
2019-03-15T04:35:45.187Z,86.68
2019-03-15T04:36:45.245Z,86.84
2019-03-15T04:37:45.166Z,86.74
2019-03-15T04:38:45.156Z,86.84
2019-03-15T04:39:45.170Z,86.68
2019-03-15T04:40:45.135Z,87.05
2019-03-15T04:41:45.123Z,86.88
2019-03-15T04:42:45.148Z,86.63
2019-03-15T04:43:45.099Z,86.74
2019-03-15T04:44:45.104Z,86.98
2019-03-15T04:45:45.081Z,87.15
2019-03-15T04:46:45.065Z,87.60
2019-03-15T04:47:45.057Z,87.56
2019-03-15T04:48:45.087Z,87.40
2019-03-15T04:49:45.033Z,87.19
2019-03-15T04:50:45.033Z,87.60
2019-03-15T04:51:45.017Z,88.22
2019-03-15T04:52:45.006Z,87.46
2019-03-15T04:53:44.992Z,88.53
2019-03-15T04:54:45.015Z,88.49
2019-03-15T04:55:44.971Z,88.59
2019-03-15T04:56:44.965Z,88.39
2019-03-15T04:57:44.949Z,88.22
2019-03-15T04:58:44.937Z,88.80
2019-03-15T04:59:44.930Z,88.64
2019-03-15T05:00:45.264Z,89.11
2019-03-15T05:01:44.901Z,89.32
2019-03-15T05:02:44.903Z,89.98
2019-03-15T05:03:44.880Z,89.83
2019-03-15T05:04:44.874Z,90.19
2019-03-15T05:05:44.860Z,90.45
2019-03-15T05:06:44.895Z,90.55
2019-03-15T05:07:44.837Z,90.97
2019-03-15T05:08:44.840Z,90.91
2019-03-15T05:09:44.814Z,91.01
2019-03-15T05:10:44.805Z,90.91
2019-03-15T05:11:44.853Z,91.52
2019-03-15T05:12:44.839Z,91.48
2019-03-15T05:13:44.775Z,92.00
2019-03-15T05:14:44.772Z,92.21
2019-03-15T05:15:44.876Z,92.21
2019-03-15T05:16:44.762Z,92.04
2019-03-15T05:17:44.736Z,92.25
2019-03-15T05:18:44.878Z,92.61
2019-03-15T05:19:44.745Z,92.25
2019-03-15T05:20:44.695Z,92.25
2019-03-15T05:21:44.785Z,92.66
2019-03-15T05:22:44.680Z,92.86
2019-03-15T05:23:44.668Z,92.66
2019-03-15T05:24:44.706Z,93.07
2019-03-15T05:25:44.656Z,92.46
2019-03-15T05:26:44.665Z,93.07
2019-03-15T05:27:44.627Z,93.69
2019-03-15T05:28:44.626Z,93.69
2019-03-15T05:29:44.672Z,93.28
2019-03-15T05:30:44.640Z,93.59
2019-03-15T05:31:44.593Z,93.59
2019-03-15T05:32:44.592Z,93.59
2019-03-15T05:33:44.573Z,93.79
2019-03-15T05:34:44.580Z,93.79
2019-03-15T05:35:44.579Z,93.69
2019-03-15T05:36:44.669Z,94.10
2019-03-15T05:37:44.575Z,94.21
2019-03-15T05:38:44.512Z,94.00
2019-03-15T05:39:44.497Z,94.21
2019-03-15T05:40:44.502Z,94.00
2019-03-15T05:41:44.483Z,94.42
2019-03-15T05:42:44.544Z,94.72
2019-03-15T05:43:44.474Z,94.31
2019-03-15T05:44:44.438Z,94.56
2019-03-15T05:45:44.440Z,94.67
2019-03-15T05:46:44.416Z,94.72
2019-03-15T05:47:44.585Z,94.87
2019-03-15T05:48:44.513Z,95.24
2019-03-15T05:49:44.387Z,95.39
2019-03-15T05:50:44.378Z,95.07
2019-03-15T05:51:44.371Z,95.07
2019-03-15T05:52:44.363Z,95.18
2019-03-15T05:53:44.344Z,95.07
2019-03-15T05:54:44.449Z,94.97
2019-03-15T05:55:44.327Z,94.67
2019-03-15T05:56:44.350Z,94.77
2019-03-15T05:57:44.319Z,94.77
2019-03-15T05:58:44.303Z,94.82
2019-03-15T05:59:44.368Z,95.28
2019-03-15T06:00:44.317Z,95.45
2019-03-15T06:01:44.259Z,95.49
2019-03-15T06:02:44.259Z,96.11
2019-03-15T06:03:48.875Z,95.70
2019-03-15T06:04:44.241Z,95.70
2019-03-15T06:05:44.225Z,95.80
2019-03-15T06:06:44.264Z,96.01
2019-03-15T06:07:44.196Z,95.80
2019-03-15T06:08:44.189Z,95.96
2019-03-15T06:09:44.274Z,96.01
2019-03-15T06:10:44.171Z,95.96
2019-03-15T06:11:44.159Z,95.76
2019-03-15T06:12:44.184Z,95.80
2019-03-15T06:13:44.145Z,95.86
2019-03-15T06:14:46.787Z,95.96
2019-03-15T06:15:44.170Z,95.96
2019-03-15T06:16:44.119Z,95.96
2019-03-15T06:17:44.089Z,95.76
2019-03-15T06:18:44.166Z,96.06
2019-03-15T06:19:44.067Z,95.45
2019-03-15T06:20:44.065Z,95.14
2019-03-15T06:21:44.062Z,95.34
2019-03-15T06:22:44.052Z,95.24
2019-03-15T06:23:44.024Z,95.14
2019-03-15T06:24:44.048Z,95.34
2019-03-15T06:25:44.008Z,95.20
2019-03-15T06:26:44.018Z,95.24
2019-03-15T06:27:43.983Z,94.62
2019-03-15T06:28:43.962Z,94.62
2019-03-15T06:29:43.956Z,94.52
2019-03-15T06:30:43.993Z,94.82
2019-03-15T06:31:43.939Z,95.45
2019-03-15T06:32:44.054Z,95.34
2019-03-15T06:33:43.921Z,95.30
2019-03-15T06:34:43.900Z,94.72
2019-03-15T06:35:43.890Z,95.03
2019-03-15T06:36:43.917Z,94.62
2019-03-15T06:37:43.893Z,93.85
2019-03-15T06:38:43.863Z,94.06
2019-03-15T06:39:43.846Z,94.17
2019-03-15T06:40:43.838Z,94.17
2019-03-15T06:41:43.821Z,94.06
2019-03-15T06:42:43.886Z,94.78
2019-03-15T06:43:43.823Z,94.37
2019-03-15T06:44:57.077Z,95.20
2019-03-15T06:45:44.829Z,95.09
2019-03-15T06:46:43.775Z,94.57
2019-03-15T06:47:43.763Z,94.57
2019-03-15T06:48:45.260Z,94.47
2019-03-15T06:49:43.736Z,95.20
2019-03-15T06:50:43.740Z,95.20
2019-03-15T06:51:43.718Z,94.78
2019-03-15T06:52:43.740Z,94.57
2019-03-15T06:53:43.698Z,94.99
2019-03-15T06:54:43.719Z,94.68
2019-03-15T06:55:43.704Z,95.09
2019-03-15T06:56:43.668Z,94.47
2019-03-15T06:57:43.677Z,94.57
2019-03-15T06:58:43.674Z,94.95
2019-03-15T06:59:43.637Z,94.57
2019-03-15T07:00:43.689Z,95.15
2019-03-15T07:01:43.625Z,94.84
2019-03-15T07:02:43.600Z,94.89
2019-03-15T07:03:43.593Z,94.95
2019-03-15T07:04:43.664Z,95.15
2019-03-15T07:05:43.598Z,94.64
2019-03-15T07:06:43.607Z,94.32
2019-03-15T07:07:43.605Z,93.81
2019-03-15T07:08:43.574Z,93.81
2019-03-15T07:09:43.531Z,93.91
2019-03-15T07:10:44.268Z,93.66
2019-03-15T07:11:43.500Z,93.87
2019-03-15T07:12:43.538Z,93.81
2019-03-15T07:13:43.494Z,93.77
2019-03-15T07:14:43.486Z,93.56
2019-03-15T07:15:44.446Z,93.35
2019-03-15T07:16:43.467Z,93.56
2019-03-15T07:17:43.436Z,93.46
2019-03-15T07:18:43.468Z,93.66
2019-03-15T07:19:43.424Z,93.35
2019-03-15T07:20:43.411Z,93.31
2019-03-15T07:21:46.683Z,93.31
2019-03-15T07:22:43.392Z,93.41
2019-03-15T07:23:43.386Z,93.46
2019-03-15T07:24:44.003Z,93.52
2019-03-15T07:25:43.358Z,93.41
2019-03-15T07:26:43.889Z,93.41
2019-03-15T07:27:43.349Z,93.27
2019-03-15T07:28:43.318Z,92.96
2019-03-15T07:29:43.309Z,93.48
2019-03-15T07:30:43.338Z,93.16
2019-03-15T07:31:43.303Z,93.06
2019-03-15T07:32:43.294Z,93.27
2019-03-15T07:33:43.264Z,92.24
2019-03-15T07:34:43.318Z,93.23
2019-03-15T07:35:43.238Z,92.92
2019-03-15T07:36:43.408Z,93.23
2019-03-15T07:37:45.627Z,93.23
2019-03-15T07:38:43.220Z,92.71
2019-03-15T07:39:43.198Z,92.82
2019-03-15T07:40:43.183Z,92.92
2019-03-15T07:41:43.288Z,92.71
2019-03-15T07:42:43.226Z,93.12
2019-03-15T07:43:43.190Z,93.33
2019-03-15T07:44:43.155Z,93.02
2019-03-15T07:45:43.140Z,94.15
2019-03-15T07:46:43.125Z,93.95
2019-03-15T07:47:43.127Z,93.90
2019-03-15T07:48:43.176Z,94.11
2019-03-15T07:49:43.096Z,94.56
2019-03-15T07:50:43.095Z,94.26
2019-03-15T07:51:43.068Z,93.54
2019-03-15T07:52:43.054Z,93.80
2019-03-15T07:53:43.049Z,94.21
2019-03-15T07:54:43.111Z,93.64
2019-03-15T07:55:43.044Z,94.21
2019-03-15T07:56:43.017Z,94.21
2019-03-15T07:57:43.234Z,94.11
2019-03-15T07:58:42.999Z,94.42
2019-03-15T07:59:42.981Z,94.21
2019-03-15T08:00:43.010Z,94.21
2019-03-15T08:01:42.964Z,94.31
2019-03-15T08:02:42.954Z,94.31
2019-03-15T08:03:42.936Z,93.90
2019-03-15T08:04:42.924Z,94.17
2019-03-15T08:05:42.925Z,94.27
2019-03-15T08:06:42.945Z,94.17
2019-03-15T08:07:45.614Z,93.86
2019-03-15T08:08:43.005Z,94.07
2019-03-15T08:09:42.885Z,94.62
2019-03-15T08:10:42.856Z,94.99
2019-03-15T08:11:42.851Z,94.68
2019-03-15T08:12:42.901Z,94.89
2019-03-15T08:13:42.829Z,94.78
2019-03-15T08:14:42.821Z,94.89
2019-03-15T08:15:42.808Z,94.64
2019-03-15T08:16:42.821Z,94.43
2019-03-15T08:17:42.787Z,94.54
2019-03-15T08:18:42.845Z,94.43
2019-03-15T08:19:42.760Z,94.23
2019-03-15T08:20:42.756Z,94.33
2019-03-15T08:21:42.742Z,94.74
2019-03-15T08:22:42.731Z,94.23
2019-03-15T08:23:42.731Z,94.84
2019-03-15T08:24:51.332Z,94.23
2019-03-15T08:25:43.697Z,94.80
2019-03-15T08:26:42.692Z,94.59
2019-03-15T08:27:42.676Z,94.70
2019-03-15T08:28:42.666Z,94.54
2019-03-15T08:29:42.706Z,95.01
2019-03-15T08:30:42.693Z,94.90
2019-03-15T08:31:42.631Z,95.21
2019-03-15T08:32:43.874Z,95.36
2019-03-15T08:33:42.659Z,95.52
2019-03-15T08:34:42.606Z,95.52
2019-03-15T08:35:42.593Z,95.93
2019-03-15T08:36:42.633Z,95.62
2019-03-15T08:37:42.778Z,95.93
2019-03-15T08:38:47.840Z,95.98
2019-03-15T08:39:43.551Z,95.31
2019-03-15T08:40:42.536Z,95.27
2019-03-15T08:41:42.543Z,95.17
2019-03-15T08:42:42.535Z,95.57
2019-03-15T08:43:45.829Z,95.47
2019-03-15T08:44:42.524Z,94.71
2019-03-15T08:45:42.499Z,94.85
2019-03-15T08:46:42.473Z,94.81
2019-03-15T08:47:42.462Z,94.71
2019-03-15T08:48:42.520Z,94.77
2019-03-15T08:49:42.445Z,94.15
2019-03-15T08:50:42.430Z,94.26
2019-03-15T08:51:42.428Z,94.05
2019-03-15T08:52:42.431Z,94.21
2019-03-15T08:53:42.411Z,93.90
2019-03-15T08:54:42.437Z,94.01
2019-03-15T08:55:42.371Z,94.62
2019-03-15T08:56:42.354Z,94.52
2019-03-15T08:57:42.348Z,94.37
2019-03-15T08:58:42.340Z,94.37
2019-03-15T08:59:52.776Z,94.37
2019-03-15T09:00:43.356Z,94.48
2019-03-15T09:01:42.300Z,94.23
2019-03-15T09:02:42.289Z,94.37
2019-03-15T09:03:42.276Z,94.58
2019-03-15T09:04:42.284Z,94.58
2019-03-15T09:05:42.283Z,94.58
2019-03-15T09:06:42.316Z,94.68
2019-03-15T09:07:42.248Z,94.43
2019-03-15T09:08:42.264Z,94.64
2019-03-15T09:09:42.225Z,94.23
2019-03-15T09:10:42.298Z,94.33
2019-03-15T09:11:42.192Z,94.33
2019-03-15T09:12:42.236Z,94.23
2019-03-15T09:13:42.174Z,94.23
2019-03-15T09:14:42.158Z,94.33
2019-03-15T09:15:42.180Z,94.23
2019-03-15T09:16:42.159Z,94.12
2019-03-15T09:17:42.135Z,94.12
2019-03-15T09:18:42.166Z,94.18
2019-03-15T09:19:42.121Z,94.59
2019-03-15T09:20:42.104Z,93.98
2019-03-15T09:21:42.152Z,94.24
2019-03-15T09:22:42.087Z,94.24
2019-03-15T09:23:42.061Z,94.24
2019-03-15T09:24:42.085Z,94.24
2019-03-15T09:25:42.064Z,93.73
2019-03-15T09:26:42.044Z,93.59
2019-03-15T09:27:45.194Z,93.43
2019-03-15T09:28:42.016Z,92.77
2019-03-15T09:29:42.001Z,92.66
2019-03-15T09:30:42.070Z,92.66
2019-03-15T09:31:47.593Z,92.62
2019-03-15T09:32:42.962Z,92.62
2019-03-15T09:33:41.965Z,92.77
2019-03-15T09:34:41.943Z,92.52
2019-03-15T09:35:41.935Z,92.32
2019-03-15T09:36:50.135Z,92.11
2019-03-15T09:37:42.937Z,92.07
2019-03-15T09:38:41.908Z,91.80
2019-03-15T09:39:41.900Z,91.96
2019-03-15T09:40:41.874Z,92.17
2019-03-15T09:41:41.881Z,91.96
2019-03-15T09:42:41.889Z,91.96
2019-03-15T09:43:45.213Z,92.27
2019-03-15T09:44:41.832Z,91.96
2019-03-15T09:45:41.816Z,91.86
2019-03-15T09:46:41.815Z,91.86
2019-03-15T09:47:41.799Z,92.27
2019-03-15T09:48:43.858Z,91.15
2019-03-15T09:49:41.782Z,91.66
2019-03-15T09:50:51.224Z,91.72
2019-03-15T09:51:42.761Z,91.20
2019-03-15T09:52:41.746Z,91.11
2019-03-15T09:53:41.742Z,91.52
2019-03-15T09:54:41.758Z,91.72
2019-03-15T09:55:41.724Z,91.31
2019-03-15T09:56:41.707Z,90.90
2019-03-15T09:57:41.709Z,91.31
2019-03-15T09:58:41.687Z,91.31
2019-03-15T09:59:41.676Z,90.96
2019-03-15T10:00:41.720Z,90.04
2019-03-15T10:01:41.690Z,90.25
2019-03-15T10:02:41.636Z,89.84
2019-03-15T10:03:41.639Z,90.45
2019-03-15T10:04:41.631Z,90.86
2019-03-15T10:05:41.609Z,91.16
2019-03-15T10:06:41.819Z,89.94
2019-03-15T10:07:43.316Z,90.75
2019-03-15T10:08:41.578Z,91.12
2019-03-15T10:09:46.070Z,89.39
2019-03-15T10:10:41.563Z,89.79
2019-03-15T10:11:41.573Z,88.98
2019-03-15T10:12:41.570Z,89.55
2019-03-15T10:13:41.540Z,89.34
2019-03-15T10:14:41.546Z,89.75
2019-03-15T10:15:41.573Z,89.65
2019-03-15T10:16:41.522Z,89.75
2019-03-15T10:17:41.479Z,90.06
2019-03-15T10:18:41.515Z,91.39
2019-03-15T10:19:41.482Z,91.22
2019-03-15T10:20:41.466Z,90.41
2019-03-15T10:21:41.432Z,90.20
2019-03-15T10:22:41.444Z,90.71
2019-03-15T10:23:41.411Z,90.81
2019-03-15T10:24:41.455Z,90.81
2019-03-15T10:25:46.653Z,90.00
2019-03-15T10:26:42.376Z,90.31
2019-03-15T10:27:41.369Z,89.79
2019-03-15T10:28:41.474Z,89.79
2019-03-15T10:29:41.349Z,90.20
2019-03-15T10:30:41.371Z,90.10
2019-03-15T10:31:41.323Z,91.02
2019-03-15T10:32:41.314Z,89.08
2019-03-15T10:33:50.463Z,89.59
2019-03-15T10:34:42.299Z,88.78
2019-03-15T10:35:41.285Z,89.28
2019-03-15T10:36:41.339Z,89.59
2019-03-15T10:37:41.302Z,89.69
2019-03-15T10:38:41.259Z,89.49
2019-03-15T10:39:41.275Z,88.78
2019-03-15T10:40:41.229Z,88.88
2019-03-15T10:41:41.231Z,88.78
2019-03-15T10:42:41.263Z,89.04
2019-03-15T10:43:41.206Z,88.93
2019-03-15T10:44:41.201Z,88.22
2019-03-15T10:45:41.185Z,88.78
2019-03-15T10:46:41.175Z,87.55
2019-03-15T10:47:42.604Z,87.71
2019-03-15T10:48:41.228Z,88.53
2019-03-15T10:49:41.136Z,88.93
2019-03-15T10:50:41.154Z,89.04
2019-03-15T10:51:41.196Z,88.63
2019-03-15T10:52:41.112Z,88.22
2019-03-15T10:53:41.096Z,89.04
2019-03-15T10:54:41.121Z,88.93
2019-03-15T10:55:41.067Z,88.84
2019-03-15T10:56:41.062Z,88.79
2019-03-15T10:57:41.048Z,89.00
2019-03-15T10:58:41.049Z,87.77
2019-03-15T10:59:41.054Z,87.06
2019-03-15T11:00:41.080Z,87.12
2019-03-15T11:01:41.006Z,86.71
2019-03-15T11:02:40.999Z,86.92
2019-03-15T11:03:40.982Z,87.32
2019-03-15T11:04:40.974Z,86.41
2019-03-15T11:05:40.965Z,87.23
2019-03-15T11:06:41.007Z,85.60
2019-03-15T11:07:40.941Z,85.69
2019-03-15T11:08:40.917Z,85.66
2019-03-15T11:09:40.914Z,85.96
2019-03-15T11:10:40.896Z,85.72
2019-03-15T11:11:40.886Z,85.82
2019-03-15T11:12:40.939Z,85.61
2019-03-15T11:13:40.863Z,85.75
2019-03-15T11:14:40.855Z,85.75
2019-03-15T11:15:40.851Z,85.25
2019-03-15T11:16:40.828Z,85.96
2019-03-15T11:17:40.830Z,86.06
2019-03-15T11:18:40.850Z,86.16
2019-03-15T11:19:40.796Z,85.45
2019-03-15T11:20:40.783Z,85.60
2019-03-15T11:21:40.773Z,85.75
2019-03-15T11:22:40.766Z,85.80
2019-03-15T11:23:40.763Z,85.60
2019-03-15T11:24:43.641Z,85.90
2019-03-15T11:25:40.728Z,85.90
2019-03-15T11:26:40.716Z,85.69
2019-03-15T11:27:40.706Z,85.69
2019-03-15T11:28:40.695Z,85.90
2019-03-15T11:29:40.685Z,85.90
2019-03-15T11:30:40.723Z,85.39
2019-03-15T11:31:40.681Z,86.00
2019-03-15T11:32:40.674Z,85.69
2019-03-15T11:33:40.644Z,86.00
2019-03-15T11:34:40.666Z,85.60
2019-03-15T11:35:40.626Z,86.00
2019-03-15T11:36:40.656Z,85.39
2019-03-15T11:37:40.618Z,85.69
2019-03-15T11:38:40.588Z,85.60
2019-03-15T11:39:40.598Z,85.39
2019-03-15T11:40:40.584Z,85.39
2019-03-15T11:41:40.581Z,85.60
2019-03-15T11:42:40.613Z,85.90
2019-03-15T11:43:40.555Z,85.80
2019-03-15T11:44:40.544Z,85.69
2019-03-15T11:45:40.510Z,86.00
2019-03-15T11:46:40.566Z,86.30
2019-03-15T11:48:01.088Z,86.55
2019-03-15T11:48:41.526Z,87.47
2019-03-15T11:49:40.479Z,85.84
2019-03-15T11:50:40.461Z,85.94
2019-03-15T11:51:42.530Z,85.84
2019-03-15T11:52:40.470Z,85.63
2019-03-15T11:53:40.429Z,85.94
2019-03-15T11:54:40.518Z,86.65
2019-03-15T11:55:40.400Z,87.06
2019-03-15T11:56:40.391Z,87.16
2019-03-15T11:57:40.394Z,86.35
2019-03-15T11:58:40.379Z,85.90
2019-03-15T11:59:40.367Z,85.90
2019-03-15T12:00:40.447Z,85.39
2019-03-15T12:01:40.330Z,86.00
2019-03-15T12:02:40.351Z,86.00
2019-03-15T12:03:52.530Z,85.49
2019-03-15T12:04:41.298Z,85.49
2019-03-15T12:05:40.288Z,84.98
2019-03-15T12:06:40.400Z,85.05
2019-03-15T12:07:40.299Z,85.80
2019-03-15T12:08:40.262Z,84.64
2019-03-15T12:09:41.158Z,84.23
2019-03-15T12:10:40.241Z,84.90
2019-03-15T12:11:40.255Z,85.00
2019-03-15T12:12:40.383Z,83.17
2019-03-15T12:13:40.206Z,83.44
2019-03-15T12:14:41.415Z,83.89
2019-03-15T12:15:40.183Z,83.58
2019-03-15T12:16:40.189Z,84.29
2019-03-15T12:17:40.150Z,84.09
2019-03-15T12:18:40.297Z,83.89
2019-03-15T12:19:40.230Z,83.58
2019-03-15T12:20:40.152Z,84.29
2019-03-15T12:21:40.136Z,84.09
2019-03-15T12:22:40.133Z,84.80
2019-03-15T12:23:40.092Z,84.29
2019-03-15T12:24:40.180Z,83.27
2019-03-15T12:25:40.066Z,83.89
2019-03-15T12:26:40.872Z,83.78
2019-03-15T12:27:40.072Z,84.09
2019-03-15T12:28:40.029Z,84.19
2019-03-15T12:29:40.029Z,84.09
2019-03-15T12:30:42.926Z,83.89
2019-03-15T12:31:40.005Z,83.98
2019-03-15T12:32:40.000Z,83.31
2019-03-15T12:33:39.978Z,83.78
2019-03-15T12:34:39.959Z,83.42
2019-03-15T12:35:39.983Z,84.80
2019-03-15T12:36:39.990Z,85.00
2019-03-15T12:37:39.935Z,84.70
2019-03-15T12:38:39.930Z,84.39
2019-03-15T12:39:39.906Z,84.70
2019-03-15T12:40:39.906Z,84.39
2019-03-15T12:41:39.893Z,83.17
2019-03-15T12:42:39.936Z,83.58
2019-03-15T12:43:39.864Z,83.68
2019-03-15T12:44:39.850Z,82.87
2019-03-15T12:45:39.836Z,83.17
2019-03-15T12:46:39.831Z,83.01
2019-03-15T12:47:39.820Z,83.21
2019-03-15T12:48:39.838Z,83.48
2019-03-15T12:49:39.799Z,83.48
2019-03-15T12:50:39.787Z,82.35
2019-03-15T12:51:39.781Z,83.58
2019-03-15T12:52:47.155Z,83.58